createdAt,value
2022-08-12T00:03:47.274Z,1.00
2022-08-12T00:09:27.777Z,1.45
2022-08-12T00:15:08.212Z,1.25
2022-08-12T00:20:48.719Z,3.28
2022-08-12T00:26:32.783Z,1.02
2022-08-12T00:32:12.856Z,2.53
2022-08-12T00:38:13.999Z,2.17
2022-08-12T00:43:36.772Z,2.25
2022-08-12T00:49:00.045Z,2.95
2022-08-12T00:54:21.763Z,3.78
2022-08-12T00:59:49.231Z,1.05
2022-08-12T01:05:33.019Z,0.57
2022-08-12T01:11:14.648Z,1.88
2022-08-12T01:16:36.604Z,3.00
2022-08-12T01:22:26.614Z,1.10
2022-08-12T01:27:50.618Z,4.50
2022-08-12T01:33:18.770Z,1.42
2022-08-12T01:38:43.943Z,1.67
2022-08-12T01:49:40.513Z,2.03
2022-08-12T01:55:03.169Z,1.02
2022-08-12T02:00:43.434Z,0.77
2022-08-12T02:06:36.430Z,1.25
2022-08-12T02:12:03.059Z,0.60
2022-08-12T02:18:03.391Z,0.60
2022-08-12T02:23:28.231Z,0.80
2022-08-12T02:28:52.381Z,1.05
2022-08-12T02:34:16.759Z,2.28
2022-08-12T02:39:45.352Z,1.83
2022-08-12T02:45:09.284Z,3.22
2022-08-12T02:50:34.755Z,2.17
2022-08-12T02:55:59.978Z,2.25
2022-08-12T03:07:04.883Z,1.42
2022-08-12T03:12:34.004Z,1.30
2022-08-12T03:18:25.510Z,0.70
2022-08-12T03:23:46.865Z,1.23
2022-08-12T03:29:09.083Z,0.95
2022-08-12T03:34:35.488Z,1.65
2022-08-12T03:39:57.267Z,3.25
2022-08-12T03:45:52.717Z,0.75
2022-08-12T03:51:34.163Z,1.27
2022-08-12T03:57:14.933Z,1.38
2022-08-12T04:02:40.684Z,1.48
2022-08-12T04:08:03.675Z,2.83
2022-08-12T04:13:25.768Z,2.05
2022-08-12T04:18:48.078Z,2.90
2022-08-12T04:24:10.815Z,1.45
2022-08-12T04:30:16.726Z,2.35
2022-08-12T04:35:17.263Z,1.48
2022-08-12T04:40:39.753Z,2.08
2022-08-12T04:46:02.973Z,1.42
2022-08-12T04:51:25.870Z,0.98
2022-08-12T04:57:03.925Z,0.90
2022-08-12T05:02:27.188Z,0.80
2022-08-12T05:07:54.148Z,1.10
2022-08-12T05:13:19.492Z,2.83
2022-08-12T05:18:45.795Z,1.63
2022-08-12T05:24:09.527Z,2.22
2022-08-12T05:30:08.051Z,1.25
2022-08-12T05:35:13.517Z,2.38
2022-08-12T05:40:35.331Z,1.20
2022-08-12T05:45:57.077Z,32.83
2022-08-12T05:51:18.993Z,6.28
2022-08-12T05:56:43.753Z,13.20
2022-08-12T06:02:10.885Z,5.68
2022-08-12T06:08:01.972Z,8.07
2022-08-12T06:13:28.186Z,14.27
2022-08-12T06:19:04.970Z,9.40
2022-08-12T06:24:28.870Z,6.13
2022-08-12T06:30:08.821Z,4.28
2022-08-12T06:35:48.968Z,5.85
2022-08-12T06:41:30.989Z,7.95
2022-08-12T06:46:52.896Z,6.07
2022-08-12T06:52:21.709Z,5.43
2022-08-12T06:58:10.117Z,5.38
2022-08-12T07:03:33.010Z,5.07
2022-08-12T07:08:54.752Z,3.47
2022-08-12T07:14:16.514Z,2.90
2022-08-12T07:19:40.539Z,2.88
2022-08-12T07:25:25.814Z,3.55
2022-08-12T07:30:51.412Z,2.53
2022-08-12T07:36:14.759Z,2.25
2022-08-12T07:41:36.458Z,2.50
2022-08-12T07:46:58.182Z,2.28
2022-08-12T07:52:19.883Z,3.42
2022-08-12T07:58:00.882Z,4.80
2022-08-12T08:03:23.025Z,6.13
2022-08-12T08:08:45.209Z,2.65
2022-08-12T08:14:08.865Z,2.72
2022-08-12T08:19:32.232Z,1.50
2022-08-12T08:24:57.779Z,1.30
2022-08-12T08:30:19.669Z,1.58
2022-08-12T08:35:47.878Z,2.72
2022-08-12T08:42:17.446Z,1.75
2022-08-12T08:47:11.868Z,3.35
2022-08-12T08:52:45.673Z,2.22
2022-08-12T08:58:09.005Z,4.45
2022-08-12T09:05:09.281Z,1.67
2022-08-12T09:09:14.688Z,2.40
2022-08-12T09:14:36.467Z,2.53
2022-08-12T09:19:58.936Z,3.22
2022-08-12T09:25:33.394Z,4.03
2022-08-12T09:30:59.039Z,1.35
2022-08-12T09:36:31.112Z,1.00
2022-08-12T09:42:40.356Z,1.83
2022-08-12T09:48:08.973Z,1.10
2022-08-12T09:53:38.806Z,2.40
2022-08-12T09:59:02.153Z,1.35
2022-08-12T10:04:25.595Z,1.10
2022-08-12T10:09:57.093Z,1.85
2022-08-12T10:16:02.926Z,4.05
2022-08-12T10:21:08.865Z,4.05
2022-08-12T10:26:50.428Z,1.25
2022-08-12T10:32:42.885Z,1.08
2022-08-12T10:38:34.061Z,1.15
2022-08-12T10:43:54.943Z,1.60
2022-08-12T10:50:03.008Z,2.13
2022-08-12T10:55:02.279Z,1.20
2022-08-12T11:00:31.701Z,5.00
2022-08-12T11:07:10.203Z,7.32
2022-08-12T11:12:36.587Z,8.77
2022-08-12T11:17:53.403Z,5.85
2022-08-12T11:23:25.994Z,2.30
2022-08-12T11:28:59.082Z,3.67
2022-08-12T11:34:52.776Z,6.18
2022-08-12T11:45:52.996Z,1.83
2022-08-12T11:51:15.243Z,4.80
2022-08-12T11:56:38.615Z,3.10
2022-08-12T12:02:05.121Z,1.70
2022-08-12T12:08:36.630Z,2.33
2022-08-12T12:13:11.728Z,2.60
2022-08-12T12:18:45.533Z,2.47
2022-08-12T12:24:07.267Z,1.85
2022-08-12T12:30:19.123Z,1.08
2022-08-12T12:36:06.028Z,2.25
2022-08-12T12:40:54.883Z,2.40
2022-08-12T12:46:18.187Z,3.17
2022-08-12T12:51:55.176Z,1.65
2022-08-12T12:57:36.150Z,1.27
2022-08-12T13:03:04.533Z,1.73
2022-08-12T13:08:36.033Z,1.40
2022-08-12T13:14:11.964Z,1.45
2022-08-12T13:19:44.472Z,4.90
2022-08-12T13:30:33.342Z,5.03
2022-08-12T13:36:05.134Z,5.78
2022-08-12T13:41:36.679Z,3.47
2022-08-12T13:47:00.443Z,10.55
2022-08-12T13:52:23.685Z,2.78
2022-08-12T13:57:47.247Z,3.40
2022-08-12T14:03:12.672Z,4.90
2022-08-12T14:08:35.042Z,2.15
2022-08-12T14:14:03.717Z,9.60
2022-08-12T14:19:32.915Z,8.20
2022-08-12T14:24:59.000Z,2.75
2022-08-12T14:30:24.182Z,4.00
2022-08-12T14:35:52.625Z,4.30
2022-08-12T14:41:20.821Z,2.40
2022-08-12T14:46:44.701Z,13.52
2022-08-12T14:53:11.426Z,13.40
2022-08-12T14:57:57.936Z,13.50
2022-08-12T15:03:25.961Z,10.40
2022-08-12T15:09:11.883Z,11.07
2022-08-12T15:14:35.373Z,7.78
2022-08-12T15:20:28.634Z,7.70
2022-08-12T15:25:47.415Z,7.18
2022-08-12T15:31:27.398Z,12.95
2022-08-12T15:36:55.122Z,9.48
2022-08-12T15:42:17.586Z,12.70
2022-08-12T15:47:47.984Z,25.65
2022-08-12T15:53:15.569Z,17.25
2022-08-12T15:58:41.511Z,21.30
2022-08-12T16:04:05.281Z,13.43
2022-08-12T16:09:55.866Z,11.70
2022-08-12T16:15:11.294Z,22.73
2022-08-12T16:20:34.989Z,11.27
2022-08-12T16:26:05.474Z,18.02
2022-08-12T16:31:28.997Z,15.50
2022-08-12T16:36:51.697Z,22.27
2022-08-12T16:42:15.707Z,17.40
2022-08-12T16:47:58.283Z,11.98
2022-08-12T16:53:22.736Z,15.68
2022-08-12T16:58:53.690Z,7.00
2022-08-12T17:04:17.838Z,5.68
2022-08-12T17:09:52.236Z,6.93
2022-08-12T17:15:50.295Z,14.13
2022-08-12T17:20:58.681Z,11.25
2022-08-12T17:26:28.405Z,6.65
2022-08-12T17:32:01.597Z,4.57
2022-08-12T17:37:23.910Z,18.48
2022-08-12T17:42:47.759Z,8.57
2022-08-12T17:48:11.972Z,12.65
2022-08-12T17:54:05.827Z,12.15
2022-08-12T17:59:48.682Z,20.33
2022-08-12T18:05:10.721Z,32.05
2022-08-12T18:10:53.020Z,21.15
2022-08-12T18:16:23.220Z,26.67
2022-08-12T18:22:01.746Z,20.52
2022-08-12T18:27:30.011Z,20.83
2022-08-12T18:33:05.392Z,25.35
2022-08-12T18:38:28.163Z,18.02
2022-08-12T18:44:10.070Z,7.63
2022-08-12T18:49:38.872Z,21.70
2022-08-12T18:55:08.181Z,10.82
2022-08-12T19:00:30.729Z,14.18
2022-08-12T19:06:01.064Z,7.25
2022-08-12T19:11:43.896Z,6.05
2022-08-12T19:17:11.445Z,7.47
2022-08-12T19:22:35.112Z,8.00
2022-08-12T19:27:57.911Z,8.02
2022-08-12T19:33:23.790Z,4.10
2022-08-12T19:38:56.888Z,5.18
2022-08-12T19:44:21.555Z,2.55
2022-08-12T19:49:53.055Z,5.75
2022-08-12T19:55:21.386Z,2.22
2022-08-12T20:00:43.923Z,1.52
2022-08-12T20:06:21.751Z,2.17
2022-08-12T20:12:14.178Z,3.10
2022-08-12T20:17:36.381Z,2.08
2022-08-12T20:23:09.853Z,30.13
2022-08-12T20:28:31.553Z,10.70
2022-08-12T20:33:56.813Z,8.13
2022-08-12T20:39:52.730Z,8.27
2022-08-12T20:45:03.100Z,6.43
2022-08-12T20:50:27.562Z,5.43
2022-08-12T20:55:56.764Z,13.20
2022-08-12T21:01:28.942Z,6.78
2022-08-12T21:07:08.424Z,6.10
2022-08-12T21:12:34.247Z,5.40
2022-08-12T21:18:08.970Z,4.88
2022-08-12T21:23:38.410Z,3.22
2022-08-12T21:29:10.531Z,5.55
2022-08-12T21:34:32.274Z,1.90
2022-08-12T21:39:56.295Z,3.88
2022-08-12T21:45:46.568Z,1.77
2022-08-12T21:51:00.202Z,2.55
2022-08-12T21:56:33.936Z,3.08
2022-08-12T22:01:56.522Z,1.75
2022-08-12T22:07:18.641Z,4.05
2022-08-12T22:12:40.857Z,6.15
2022-08-12T22:18:07.587Z,2.83
2022-08-12T22:23:51.564Z,3.63
2022-08-12T22:29:36.808Z,3.75
2022-08-12T22:35:22.371Z,2.65
2022-08-12T22:41:00.731Z,3.47
2022-08-12T22:46:23.196Z,2.03
2022-08-12T22:52:00.779Z,6.95
2022-08-12T22:57:53.555Z,5.10
2022-08-12T23:03:46.738Z,3.72
2022-08-12T23:08:52.424Z,3.38
2022-08-12T23:14:15.219Z,3.85
2022-08-12T23:19:38.444Z,1.77
2022-08-12T23:25:18.869Z,3.33
2022-08-12T23:30:43.073Z,1.23
2022-08-12T23:36:05.210Z,2.67
2022-08-12T23:41:29.394Z,3.40
2022-08-12T23:47:11.774Z,2.92
2022-08-12T23:52:34.983Z,4.53
2022-08-12T23:58:22.650Z,1.85
